Time;durP1;ratioP1;P1;durP2;ratioP2;P2;SDS_P1;SDS_P2;PMS_P1;PMS_P2;Temp;Humidity;BMP_temperature;BMP_pressure;BME280_temperature;BME280_humidity;BME280_pressure;Samples;Min_cycle;Max_cycle;Signal;HPM_P1;HPM_P2
2022/10/16 08:37:55;;;;;;;19.27;6.35;;;;;;;;;;4936844;28;20051;-83
2022/10/16 08:40:27;;;;;;;18.30;5.80;;;;;;;;;;4964703;28;20578;-82
2022/10/16 08:43:31;;;;;;;19.92;5.78;;;;;;;;;;4964496;28;20046;-81
2022/10/16 08:46:21;;;;;;;13.70;5.20;;;;;;;;;;4965224;28;20480;-82
2022/10/16 08:48:59;;;;;;;15.88;5.43;;;;;;;;;;4964399;28;20427;-82
2022/10/16 08:51:31;;;;;;;13.80;5.30;;;;;;;;;;4960108;28;20467;-81
2022/10/16 08:54:02;;;;;;;18.30;5.70;;;;;;;;;;4951957;28;20408;-81
2022/10/16 08:56:29;;;;;;;19.15;4.93;;;;;;;;;;4961189;28;20054;-81
2022/10/16 08:58:57;;;;;;;16.55;5.45;;;;;;;;;;4961169;28;20055;-81
2022/10/16 09:01:25;;;;;;;20.50;5.80;;;;;;;;;;4960368;28;20140;-80
2022/10/16 09:32:58;;;;;;;12.07;4.22;;;;;;;;;;4965639;28;20241;-81
2022/10/16 09:35:33;;;;;;;15.88;4.85;;;;;;;;;;4968147;28;20423;-81
2022/10/16 09:38:00;;;;;;;16.67;4.28;;;;;;;;;;4962883;28;20053;-80
2022/10/16 09:40:32;;;;;;;18.10;4.50;;;;;;;;;;4958360;28;20039;-81
2022/10/16 09:43:16;;;;;;;18.85;4.32;;;;;;;;;;4963252;28;20049;-82
2022/10/16 09:45:41;;;;;;;20.67;5.03;;;;;;;;;;4968283;28;20182;-81
2022/10/16 09:48:19;;;;;;;20.05;5.15;;;;;;;;;;4968482;28;20122;-82
2022/10/16 09:50:55;;;;;;;23.92;6.15;;;;;;;;;;4967823;28;20051;-80
2022/10/16 09:53:22;;;;;;;17.20;5.95;;;;;;;;;;4965403;28;20039;-81
2022/10/16 09:55:52;;;;;;;24.17;6.53;;;;;;;;;;4966543;28;20096;-82
2022/10/16 09:58:20;;;;;;;20.60;5.75;;;;;;;;;;4966216;28;20073;-84
2022/10/16 10:00:51;;;;;;;14.40;3.60;;;;;;;;;;4968482;28;20074;-84
2022/10/16 10:03:37;;;;;;;13.88;4.43;;;;;;;;;;4973349;28;20104;-82
2022/10/16 10:06:26;;;;;;;18.35;4.03;;;;;;;;;;4973752;28;20046;-82
2022/10/16 10:08:57;;;;;;;16.70;3.83;;;;;;;;;;4973448;28;20050;-82
2022/10/16 10:11:50;;;;;;;20.65;3.33;;;;;;;;;;4968561;28;20130;-82
2022/10/16 10:14:29;;;;;;;13.07;3.50;;;;;;;;;;4975185;28;20136;-82
2022/10/16 10:17:06;;;;;;;12.40;2.38;;;;;;;;;;4962106;28;20125;-81
2022/10/16 10:19:50;;;;;;;10.43;2.08;;;;;;;;;;4964105;28;20051;-82
2022/10/16 10:22:17;;;;;;;11.75;2.08;;;;;;;;;;4967296;28;20055;-82
2022/10/16 10:24:44;;;;;;;11.02;2.63;;;;;;;;;;4967664;28;20039;-82
2022/10/16 10:27:16;;;;;;;13.00;3.17;;;;;;;;;;4967211;28;20048;-81
2022/10/16 10:29:45;;;;;;;9.25;2.22;;;;;;;;;;4967787;28;20054;-80
2022/10/16 10:32:31;;;;;;;6.30;1.67;;;;;;;;;;4967416;28;20043;-79
2022/10/16 10:35:15;;;;;;;8.30;1.70;;;;;;;;;;4965203;28;20046;-78
2022/10/16 10:38:00;;;;;;;9.40;2.20;;;;;;;;;;4967292;28;20046;-80
2022/10/16 10:40:51;;;;;;;8.82;1.95;;;;;;;;;;4967550;28;20129;-78
2022/10/16 10:44:01;;;;;;;5.55;1.88;;;;;;;;;;4961492;28;20039;-80
2022/10/16 10:46:42;;;;;;;10.98;2.10;;;;;;;;;;4907365;29;20225;-80
2022/10/16 10:49:49;;;;;;;12.82;1.90;;;;;;;;;;4907521;29;20059;-79
2022/10/16 10:52:50;;;;;;;13.55;2.08;;;;;;;;;;4907681;29;20279;-80
2022/10/16 10:55:37;;;;;;;8.52;3.22;;;;;;;;;;4907240;29;20112;-80
2022/10/16 10:58:34;;;;;;;14.50;2.35;;;;;;;;;;4903445;29;20123;-78
2022/10/16 11:01:14;;;;;;;12.30;2.20;;;;;;;;;;4891603;29;20096;-80
2022/10/16 11:03:42;;;;;;;8.82;1.88;;;;;;;;;;4906604;29;20525;-79
2022/10/16 11:06:12;;;;;;;9.77;2.40;;;;;;;;;;4905118;29;20064;-79
2022/10/16 11:08:58;;;;;;;9.07;2.80;;;;;;;;;;4910921;29;20050;-79
2022/10/16 11:11:33;;;;;;;26.23;3.22;;;;;;;;;;4907364;29;20107;-79
2022/10/16 11:14:21;;;;;;;16.10;3.60;;;;;;;;;;4892082;29;20694;-80
2022/10/16 11:17:13;;;;;;;11.05;2.03;;;;;;;;;;4906782;29;20056;-79
2022/10/16 11:20:13;;;;;;;17.02;2.58;;;;;;;;;;4909210;29;20079;-79
2022/10/16 11:22:44;;;;;;;17.80;2.40;;;;;;;;;;4941219;28;20134;-79
2022/10/16 11:25:32;;;;;;;12.85;2.85;;;;;;;;;;4948021;28;20054;-79
2022/10/16 11:28:00;;;;;;;16.70;2.13;;;;;;;;;;4949617;28;20059;-79
2022/10/16 11:30:32;;;;;;;17.30;2.35;;;;;;;;;;4948997;28;20054;-80
2022/10/16 11:32:57;;;;;;;14.18;2.47;;;;;;;;;;4949794;28;20047;-79
2022/10/16 11:35:53;;;;;;;13.65;2.63;;;;;;;;;;4950513;28;20130;-80
2022/10/16 11:38:24;;;;;;;16.10;2.80;;;;;;;;;;4928337;29;20071;-80
2022/10/16 11:40:54;;;;;;;19.88;3.00;;;;;;;;;;4929753;29;20036;-79
2022/10/16 11:43:23;;;;;;;14.85;2.40;;;;;;;;;;4928764;29;20099;-79
2022/10/16 11:45:53;;;;;;;8.43;2.20;;;;;;;;;;4929206;29;20035;-79
2022/10/16 11:48:24;;;;;;;20.15;4.68;;;;;;;;;;4928612;29;20051;-79
2022/10/16 11:50:54;;;;;;;23.25;2.70;;;;;;;;;;4927600;29;20039;-80
2022/10/16 11:53:22;;;;;;;16.80;2.70;;;;;;;;;;4929036;29;20150;-79
2022/10/16 11:55:47;;;;;;;18.02;3.40;;;;;;;;;;4928673;29;20043;-78
2022/10/16 11:58:39;;;;;;;10.82;2.30;;;;;;;;;;4912905;29;20064;-79
2022/10/16 12:01:07;;;;;;;9.32;2.70;;;;;;;;;;4928523;29;20063;-78
